<?xml version="1.0" encoding="UTF-8" standalone="no" ?>
<gpx xmlns="http://www.topografix.com/GPX/1/1" xmlns:xsi="http://www.w3.org/2001/XMLSchema-instance" xsi:schemaLocation="http://www.topografix.com/GPX/1/1 http://www.topografix.com/GPX/1/1/gpx.xsd" version="1.1" creator="VisuGPX - https://www.visugpx.com">
  <metadata>
    <name>Trail de l\'Ours 2012</name>
    <desc><![CDATA[Le 7 octobre 2012]]></desc>
  </metadata>
  <trk>
    <name><![CDATA[TRAIL DE L OURS 2012]]></name>
    <trkseg>
      <trkpt lat="45.41498" lon="5.85482">
        <ele>632.200012207</ele>
        <time>2012-06-16T09:42:35Z</time>
      </trkpt>
      <trkpt lat="45.41429" lon="5.85476">
        <ele>632.400024414</ele>
        <time>2012-06-16T09:43:16Z</time>
      </trkpt>
      <trkpt lat="45.41205" lon="5.8535">
        <ele>645.599975586</ele>
        <time>2012-06-16T09:45:01Z</time>
      </trkpt>
      <trkpt lat="45.41174" lon="5.85311">
        <ele>649.599975586</ele>
        <time>2012-06-16T09:45:19Z</time>
      </trkpt>
      <trkpt lat="45.41117" lon="5.85302">
        <ele>656.400024414</ele>
        <time>2012-06-16T09:45:47Z</time>
      </trkpt>
      <trkpt lat="45.41096" lon="5.85243">
        <ele>660.799987793</ele>
        <time>2012-06-16T09:46:06Z</time>
      </trkpt>
      <trkpt lat="45.40989" lon="5.85153">
        <ele>663.200012207</ele>
        <time>2012-06-16T09:47:01Z</time>
      </trkpt>
      <trkpt lat="45.40942" lon="5.85181">
        <ele>669.799987793</ele>
        <time>2012-06-16T09:48:13Z</time>
      </trkpt>
      <trkpt lat="45.40964" lon="5.85137">
        <ele>678.599975586</ele>
        <time>2012-06-16T09:48:50Z</time>
      </trkpt>
      <trkpt lat="45.408" lon="5.85074">
        <ele>705.200012207</ele>
        <time>2012-06-16T09:51:05Z</time>
      </trkpt>
      <trkpt lat="45.40635" lon="5.8484">
        <ele>734.599975586</ele>
        <time>2012-06-16T09:53:12Z</time>
      </trkpt>
      <trkpt lat="45.40571" lon="5.84817">
        <ele>739.799987793</ele>
        <time>2012-06-16T09:54:11Z</time>
      </trkpt>
      <trkpt lat="45.40555" lon="5.84614">
        <ele>771.599975586</ele>
        <time>2012-06-16T09:56:53Z</time>
      </trkpt>
      <trkpt lat="45.40497" lon="5.84566">
        <ele>780.599975586</ele>
        <time>2012-06-16T09:57:40Z</time>
      </trkpt>
      <trkpt lat="45.40387" lon="5.84585">
        <ele>785.200012207</ele>
        <time>2012-06-16T09:58:36Z</time>
      </trkpt>
      <trkpt lat="45.40241" lon="5.84686">
        <ele>807</ele>
        <time>2012-06-16T10:02:24Z</time>
      </trkpt>
      <trkpt lat="45.40088" lon="5.84624">
        <ele>831.400024414</ele>
        <time>2012-06-16T10:04:02Z</time>
      </trkpt>
      <trkpt lat="45.40063" lon="5.84575">
        <ele>838.400024414</ele>
        <time>2012-06-16T10:04:41Z</time>
      </trkpt>
      <trkpt lat="45.39869" lon="5.84524">
        <ele>847</ele>
        <time>2012-06-16T10:05:58Z</time>
      </trkpt>
      <trkpt lat="45.39771" lon="5.8447">
        <ele>854.200012207</ele>
        <time>2012-06-16T10:07:12Z</time>
      </trkpt>
      <trkpt lat="45.39787" lon="5.84374">
        <ele>861</ele>
        <time>2012-06-16T10:08:00Z</time>
      </trkpt>
      <trkpt lat="45.39752" lon="5.84263">
        <ele>871.799987793</ele>
        <time>2012-06-16T10:10:02Z</time>
      </trkpt>
      <trkpt lat="45.3969" lon="5.84264">
        <ele>876</ele>
        <time>2012-06-16T10:10:30Z</time>
      </trkpt>
      <trkpt lat="45.396" lon="5.84193">
        <ele>891.400024414</ele>
        <time>2012-06-16T10:11:58Z</time>
      </trkpt>
      <trkpt lat="45.39569" lon="5.84098">
        <ele>904.200012207</ele>
        <time>2012-06-16T10:13:11Z</time>
      </trkpt>
      <trkpt lat="45.39579" lon="5.84075">
        <ele>907</ele>
        <time>2012-06-16T10:13:29Z</time>
      </trkpt>
      <trkpt lat="45.3965" lon="5.84109">
        <ele>912</ele>
        <time>2012-06-16T10:14:01Z</time>
      </trkpt>
      <trkpt lat="45.39714" lon="5.84064">
        <ele>907.400024414</ele>
        <time>2012-06-16T10:14:31Z</time>
      </trkpt>
      <trkpt lat="45.39797" lon="5.8408">
        <ele>902.200012207</ele>
        <time>2012-06-16T10:15:02Z</time>
      </trkpt>
      <trkpt lat="45.39978" lon="5.84171">
        <ele>887</ele>
        <time>2012-06-16T10:16:12Z</time>
      </trkpt>
      <trkpt lat="45.40146" lon="5.84135">
        <ele>887.200012207</ele>
        <time>2012-06-16T10:17:42Z</time>
      </trkpt>
      <trkpt lat="45.40266" lon="5.84159">
        <ele>882.599975586</ele>
        <time>2012-06-16T10:18:21Z</time>
      </trkpt>
      <trkpt lat="45.40397" lon="5.84094">
        <ele>876.400024414</ele>
        <time>2012-06-16T10:19:06Z</time>
      </trkpt>
      <trkpt lat="45.40439" lon="5.841">
        <ele>872.200012207</ele>
        <time>2012-06-16T10:19:27Z</time>
      </trkpt>
      <trkpt lat="45.4042" lon="5.84137">
        <ele>868.200012207</ele>
        <time>2012-06-16T10:20:01Z</time>
      </trkpt>
      <trkpt lat="45.40449" lon="5.84201">
        <ele>855</ele>
        <time>2012-06-16T10:21:22Z</time>
      </trkpt>
      <trkpt lat="45.40509" lon="5.84154">
        <ele>850.400024414</ele>
        <time>2012-06-16T10:22:25Z</time>
      </trkpt>
      <trkpt lat="45.40604" lon="5.84212">
        <ele>856.599975586</ele>
        <time>2012-06-16T10:24:07Z</time>
      </trkpt>
      <trkpt lat="45.4072" lon="5.84324">
        <ele>856.799987793</ele>
        <time>2012-06-16T10:27:14Z</time>
      </trkpt>
      <trkpt lat="45.40721" lon="5.84356">
        <ele>854.400024414</ele>
        <time>2012-06-16T10:27:53Z</time>
      </trkpt>
      <trkpt lat="45.40782" lon="5.84404">
        <ele>845.400024414</ele>
        <time>2012-06-16T10:28:31Z</time>
      </trkpt>
      <trkpt lat="45.40871" lon="5.84421">
        <ele>845.400024414</ele>
        <time>2012-06-16T10:29:14Z</time>
      </trkpt>
      <trkpt lat="45.41107" lon="5.84385">
        <ele>854.200012207</ele>
        <time>2012-06-16T10:30:54Z</time>
      </trkpt>
      <trkpt lat="45.41102" lon="5.84288">
        <ele>862</ele>
        <time>2012-06-16T10:32:13Z</time>
      </trkpt>
      <trkpt lat="45.41244" lon="5.84154">
        <ele>879.400024414</ele>
        <time>2012-06-16T10:34:21Z</time>
      </trkpt>
      <trkpt lat="45.41255" lon="5.84051">
        <ele>883.400024414</ele>
        <time>2012-06-16T10:35:26Z</time>
      </trkpt>
      <trkpt lat="45.41338" lon="5.8386">
        <ele>900</ele>
        <time>2012-06-16T10:37:20Z</time>
      </trkpt>
      <trkpt lat="45.41348" lon="5.83795">
        <ele>904.200012207</ele>
        <time>2012-06-16T10:37:56Z</time>
      </trkpt>
      <trkpt lat="45.4139" lon="5.83761">
        <ele>912.200012207</ele>
        <time>2012-06-16T10:39:47Z</time>
      </trkpt>
      <trkpt lat="45.4152" lon="5.83819">
        <ele>930</ele>
        <time>2012-06-16T10:42:45Z</time>
      </trkpt>
      <trkpt lat="45.41394" lon="5.83767">
        <ele>918</ele>
        <time>2012-06-16T10:44:56Z</time>
      </trkpt>
      <trkpt lat="45.41442" lon="5.83724">
        <ele>905.799987793</ele>
        <time>2012-06-16T10:45:32Z</time>
      </trkpt>
      <trkpt lat="45.41552" lon="5.83698">
        <ele>885.599975586</ele>
        <time>2012-06-16T10:46:21Z</time>
      </trkpt>
      <trkpt lat="45.41569" lon="5.83672">
        <ele>880.799987793</ele>
        <time>2012-06-16T10:46:35Z</time>
      </trkpt>
      <trkpt lat="45.41549" lon="5.8363">
        <ele>871.799987793</ele>
        <time>2012-06-16T10:46:57Z</time>
      </trkpt>
      <trkpt lat="45.41569" lon="5.83609">
        <ele>863.599975586</ele>
        <time>2012-06-16T10:47:16Z</time>
      </trkpt>
      <trkpt lat="45.41526" lon="5.83595">
        <ele>853.400024414</ele>
        <time>2012-06-16T10:47:44Z</time>
      </trkpt>
      <trkpt lat="45.41503" lon="5.83547">
        <ele>845.599975586</ele>
        <time>2012-06-16T10:48:02Z</time>
      </trkpt>
      <trkpt lat="45.41516" lon="5.83541">
        <ele>839</ele>
        <time>2012-06-16T10:48:14Z</time>
      </trkpt>
      <trkpt lat="45.41474" lon="5.83506">
        <ele>829.599975586</ele>
        <time>2012-06-16T10:48:29Z</time>
      </trkpt>
      <trkpt lat="45.41589" lon="5.83556">
        <ele>808</ele>
        <time>2012-06-16T10:50:03Z</time>
      </trkpt>
      <trkpt lat="45.4156" lon="5.83536">
        <ele>800.799987793</ele>
        <time>2012-06-16T10:50:18Z</time>
      </trkpt>
      <trkpt lat="45.41663" lon="5.83537">
        <ele>778.200012207</ele>
        <time>2012-06-16T10:50:55Z</time>
      </trkpt>
      <trkpt lat="45.41677" lon="5.83557">
        <ele>772</ele>
        <time>2012-06-16T10:51:22Z</time>
      </trkpt>
      <trkpt lat="45.41685" lon="5.83515">
        <ele>768.599975586</ele>
        <time>2012-06-16T10:52:10Z</time>
      </trkpt>
      <trkpt lat="45.41619" lon="5.83444">
        <ele>752.599975586</ele>
        <time>2012-06-16T10:52:43Z</time>
      </trkpt>
      <trkpt lat="45.41716" lon="5.83447">
        <ele>728.200012207</ele>
        <time>2012-06-16T10:53:27Z</time>
      </trkpt>
      <trkpt lat="45.41827" lon="5.83532">
        <ele>687</ele>
        <time>2012-06-16T10:54:51Z</time>
      </trkpt>
      <trkpt lat="45.41832" lon="5.83472">
        <ele>673.200012207</ele>
        <time>2012-06-16T10:55:28Z</time>
      </trkpt>
      <trkpt lat="45.41861" lon="5.83458">
        <ele>655.799987793</ele>
        <time>2012-06-16T10:56:19Z</time>
      </trkpt>
      <trkpt lat="45.41852" lon="5.83445">
        <ele>652</ele>
        <time>2012-06-16T10:56:31Z</time>
      </trkpt>
      <trkpt lat="45.41972" lon="5.83562">
        <ele>611.799987793</ele>
        <time>2012-06-16T10:58:08Z</time>
      </trkpt>
      <trkpt lat="45.41972" lon="5.83545">
        <ele>607</ele>
        <time>2012-06-16T10:58:20Z</time>
      </trkpt>
      <trkpt lat="45.41993" lon="5.83592">
        <ele>599.200012207</ele>
        <time>2012-06-16T10:58:54Z</time>
      </trkpt>
      <trkpt lat="45.4196" lon="5.83614">
        <ele>590.799987793</ele>
        <time>2012-06-16T10:59:14Z</time>
      </trkpt>
      <trkpt lat="45.41939" lon="5.83697">
        <ele>581.200012207</ele>
        <time>2012-06-16T10:59:40Z</time>
      </trkpt>
      <trkpt lat="45.41962" lon="5.83739">
        <ele>580.400024414</ele>
        <time>2012-06-16T11:00:01Z</time>
      </trkpt>
      <trkpt lat="45.41944" lon="5.83741">
        <ele>581.799987793</ele>
        <time>2012-06-16T11:00:11Z</time>
      </trkpt>
      <trkpt lat="45.41963" lon="5.83761">
        <ele>584.799987793</ele>
        <time>2012-06-16T11:00:21Z</time>
      </trkpt>
      <trkpt lat="45.4188" lon="5.8383">
        <ele>594.400024414</ele>
        <time>2012-06-16T11:01:25Z</time>
      </trkpt>
      <trkpt lat="45.41889" lon="5.83845">
        <ele>597.400024414</ele>
        <time>2012-06-16T11:01:36Z</time>
      </trkpt>
      <trkpt lat="45.41837" lon="5.83855">
        <ele>603.599975586</ele>
        <time>2012-06-16T11:02:21Z</time>
      </trkpt>
      <trkpt lat="45.41885" lon="5.8385">
        <ele>603.599975586</ele>
        <time>2012-06-16T11:03:00Z</time>
      </trkpt>
      <trkpt lat="45.41841" lon="5.83783">
        <ele>612.200012207</ele>
        <time>2012-06-16T11:03:35Z</time>
      </trkpt>
      <trkpt lat="45.41883" lon="5.83793">
        <ele>617</ele>
        <time>2012-06-16T11:03:56Z</time>
      </trkpt>
      <trkpt lat="45.41898" lon="5.83759">
        <ele>621.200012207</ele>
        <time>2012-06-16T11:04:12Z</time>
      </trkpt>
      <trkpt lat="45.42025" lon="5.83782">
        <ele>630.200012207</ele>
        <time>2012-06-16T11:04:50Z</time>
      </trkpt>
      <trkpt lat="45.42015" lon="5.83768">
        <ele>631.599975586</ele>
        <time>2012-06-16T11:04:55Z</time>
      </trkpt>
      <trkpt lat="45.42086" lon="5.8376">
        <ele>635.799987793</ele>
        <time>2012-06-16T11:05:25Z</time>
      </trkpt>
      <trkpt lat="45.4209" lon="5.83725">
        <ele>640.799987793</ele>
        <time>2012-06-16T11:05:46Z</time>
      </trkpt>
      <trkpt lat="45.42106" lon="5.83728">
        <ele>644</ele>
        <time>2012-06-16T11:05:58Z</time>
      </trkpt>
      <trkpt lat="45.42152" lon="5.83619">
        <ele>644.400024414</ele>
        <time>2012-06-16T11:06:42Z</time>
      </trkpt>
      <trkpt lat="45.42184" lon="5.83616">
        <ele>644</ele>
        <time>2012-06-16T11:06:56Z</time>
      </trkpt>
      <trkpt lat="45.42231" lon="5.83558">
        <ele>641.799987793</ele>
        <time>2012-06-16T11:07:27Z</time>
      </trkpt>
      <trkpt lat="45.42268" lon="5.83552">
        <ele>643.799987793</ele>
        <time>2012-06-16T11:07:40Z</time>
      </trkpt>
      <trkpt lat="45.42274" lon="5.83393">
        <ele>636</ele>
        <time>2012-06-16T11:08:47Z</time>
      </trkpt>
      <trkpt lat="45.42288" lon="5.83401">
        <ele>635.200012207</ele>
        <time>2012-06-16T11:09:05Z</time>
      </trkpt>
      <trkpt lat="45.42259" lon="5.83351">
        <ele>629.599975586</ele>
        <time>2012-06-16T11:09:51Z</time>
      </trkpt>
      <trkpt lat="45.42193" lon="5.83369">
        <ele>615.200012207</ele>
        <time>2012-06-16T11:10:39Z</time>
      </trkpt>
      <trkpt lat="45.42208" lon="5.8331">
        <ele>598.200012207</ele>
        <time>2012-06-16T11:11:25Z</time>
      </trkpt>
      <trkpt lat="45.42189" lon="5.8321">
        <ele>582.200012207</ele>
        <time>2012-06-16T11:12:40Z</time>
      </trkpt>
      <trkpt lat="45.42227" lon="5.83162">
        <ele>592.799987793</ele>
        <time>2012-06-16T11:14:29Z</time>
      </trkpt>
      <trkpt lat="45.42194" lon="5.83141">
        <ele>608.200012207</ele>
        <time>2012-06-16T11:16:52Z</time>
      </trkpt>
      <trkpt lat="45.42169" lon="5.83063">
        <ele>629.400024414</ele>
        <time>2012-06-16T11:19:09Z</time>
      </trkpt>
      <trkpt lat="45.42168" lon="5.82883">
        <ele>623.200012207</ele>
        <time>2012-06-16T11:20:40Z</time>
      </trkpt>
      <trkpt lat="45.42217" lon="5.82762">
        <ele>600.599975586</ele>
        <time>2012-06-16T11:21:59Z</time>
      </trkpt>
      <trkpt lat="45.42296" lon="5.82776">
        <ele>592</ele>
        <time>2012-06-16T11:23:26Z</time>
      </trkpt>
      <trkpt lat="45.42315" lon="5.82753">
        <ele>575.400024414</ele>
        <time>2012-06-16T11:24:34Z</time>
      </trkpt>
      <trkpt lat="45.42298" lon="5.8269">
        <ele>551.599975586</ele>
        <time>2012-06-16T11:25:58Z</time>
      </trkpt>
      <trkpt lat="45.4233" lon="5.82678">
        <ele>546</ele>
        <time>2012-06-16T11:26:35Z</time>
      </trkpt>
      <trkpt lat="45.42284" lon="5.82597">
        <ele>541.400024414</ele>
        <time>2012-06-16T11:28:17Z</time>
      </trkpt>
      <trkpt lat="45.42291" lon="5.82532">
        <ele>539.599975586</ele>
        <time>2012-06-16T11:29:42Z</time>
      </trkpt>
      <trkpt lat="45.42268" lon="5.82502">
        <ele>534.200012207</ele>
        <time>2012-06-16T11:30:24Z</time>
      </trkpt>
      <trkpt lat="45.42292" lon="5.82437">
        <ele>533.599975586</ele>
        <time>2012-06-16T11:31:02Z</time>
      </trkpt>
      <trkpt lat="45.42188" lon="5.82307">
        <ele>530.799987793</ele>
        <time>2012-06-16T11:33:19Z</time>
      </trkpt>
      <trkpt lat="45.42207" lon="5.82229">
        <ele>530.799987793</ele>
        <time>2012-06-16T11:33:52Z</time>
      </trkpt>
      <trkpt lat="45.42244" lon="5.82186">
        <ele>537.400024414</ele>
        <time>2012-06-16T11:34:39Z</time>
      </trkpt>
      <trkpt lat="45.42221" lon="5.82064">
        <ele>544</ele>
        <time>2012-06-16T11:35:42Z</time>
      </trkpt>
      <trkpt lat="45.42237" lon="5.82058">
        <ele>546.400024414</ele>
        <time>2012-06-16T11:35:52Z</time>
      </trkpt>
      <trkpt lat="45.42278" lon="5.82158">
        <ele>554.799987793</ele>
        <time>2012-06-16T11:37:05Z</time>
      </trkpt>
      <trkpt lat="45.42323" lon="5.82073">
        <ele>568</ele>
        <time>2012-06-16T11:38:09Z</time>
      </trkpt>
      <trkpt lat="45.4237" lon="5.8207">
        <ele>573.599975586</ele>
        <time>2012-06-16T11:38:40Z</time>
      </trkpt>
      <trkpt lat="45.42393" lon="5.8204">
        <ele>577.799987793</ele>
        <time>2012-06-16T11:39:05Z</time>
      </trkpt>
      <trkpt lat="45.42388" lon="5.81971">
        <ele>583</ele>
        <time>2012-06-16T11:39:32Z</time>
      </trkpt>
      <trkpt lat="45.42421" lon="5.8196">
        <ele>587.599975586</ele>
        <time>2012-06-16T11:39:54Z</time>
      </trkpt>
      <trkpt lat="45.42437" lon="5.81907">
        <ele>594.599975586</ele>
        <time>2012-06-16T11:40:27Z</time>
      </trkpt>
      <trkpt lat="45.42547" lon="5.81882">
        <ele>617.400024414</ele>
        <time>2012-06-16T11:42:16Z</time>
      </trkpt>
      <trkpt lat="45.42643" lon="5.81785">
        <ele>632.599975586</ele>
        <time>2012-06-16T11:44:04Z</time>
      </trkpt>
      <trkpt lat="45.42664" lon="5.81736">
        <ele>637.400024414</ele>
        <time>2012-06-16T11:44:39Z</time>
      </trkpt>
      <trkpt lat="45.42655" lon="5.81645">
        <ele>646</ele>
        <time>2012-06-16T11:45:35Z</time>
      </trkpt>
      <trkpt lat="45.42573" lon="5.81599">
        <ele>654.400024414</ele>
        <time>2012-06-16T11:46:31Z</time>
      </trkpt>
      <trkpt lat="45.4256" lon="5.81566">
        <ele>657</ele>
        <time>2012-06-16T11:46:49Z</time>
      </trkpt>
      <trkpt lat="45.42727" lon="5.81498">
        <ele>683</ele>
        <time>2012-06-16T11:49:10Z</time>
      </trkpt>
      <trkpt lat="45.42833" lon="5.81509">
        <ele>698.599975586</ele>
        <time>2012-06-16T11:50:38Z</time>
      </trkpt>
      <trkpt lat="45.42895" lon="5.81545">
        <ele>707.799987793</ele>
        <time>2012-06-16T11:51:26Z</time>
      </trkpt>
      <trkpt lat="45.42906" lon="5.81503">
        <ele>712.400024414</ele>
        <time>2012-06-16T11:51:51Z</time>
      </trkpt>
      <trkpt lat="45.42968" lon="5.81548">
        <ele>722.799987793</ele>
        <time>2012-06-16T11:52:45Z</time>
      </trkpt>
      <trkpt lat="45.43032" lon="5.81482">
        <ele>734.200012207</ele>
        <time>2012-06-16T11:53:48Z</time>
      </trkpt>
      <trkpt lat="45.4308" lon="5.81506">
        <ele>737</ele>
        <time>2012-06-16T11:54:26Z</time>
      </trkpt>
      <trkpt lat="45.43019" lon="5.81506">
        <ele>745.599975586</ele>
        <time>2012-06-16T11:55:12Z</time>
      </trkpt>
      <trkpt lat="45.42988" lon="5.81534">
        <ele>747.599975586</ele>
        <time>2012-06-16T11:55:27Z</time>
      </trkpt>
      <trkpt lat="45.42957" lon="5.8166">
        <ele>752</ele>
        <time>2012-06-16T11:56:14Z</time>
      </trkpt>
      <trkpt lat="45.4291" lon="5.81692">
        <ele>760.799987793</ele>
        <time>2012-06-16T11:56:56Z</time>
      </trkpt>
      <trkpt lat="45.42891" lon="5.81783">
        <ele>758</ele>
        <time>2012-06-16T11:57:31Z</time>
      </trkpt>
      <trkpt lat="45.42786" lon="5.81905">
        <ele>737.799987793</ele>
        <time>2012-06-16T11:58:22Z</time>
      </trkpt>
      <trkpt lat="45.42737" lon="5.82028">
        <ele>750.200012207</ele>
        <time>2012-06-16T11:59:19Z</time>
      </trkpt>
      <trkpt lat="45.42744" lon="5.82175">
        <ele>746.799987793</ele>
        <time>2012-06-16T12:00:09Z</time>
      </trkpt>
      <trkpt lat="45.42692" lon="5.82238">
        <ele>748</ele>
        <time>2012-06-16T12:01:09Z</time>
      </trkpt>
      <trkpt lat="45.42672" lon="5.82393">
        <ele>748.200012207</ele>
        <time>2012-06-16T12:02:10Z</time>
      </trkpt>
      <trkpt lat="45.42683" lon="5.82441">
        <ele>754.599975586</ele>
        <time>2012-06-16T12:02:37Z</time>
      </trkpt>
      <trkpt lat="45.42716" lon="5.82465">
        <ele>763.200012207</ele>
        <time>2012-06-16T12:03:17Z</time>
      </trkpt>
      <trkpt lat="45.42772" lon="5.82397">
        <ele>779.799987793</ele>
        <time>2012-06-16T12:04:33Z</time>
      </trkpt>
      <trkpt lat="45.4279" lon="5.82404">
        <ele>786.400024414</ele>
        <time>2012-06-16T12:04:54Z</time>
      </trkpt>
      <trkpt lat="45.42812" lon="5.82481">
        <ele>795.599975586</ele>
        <time>2012-06-16T12:05:39Z</time>
      </trkpt>
      <trkpt lat="45.42844" lon="5.82487">
        <ele>800</ele>
        <time>2012-06-16T12:06:05Z</time>
      </trkpt>
      <trkpt lat="45.42849" lon="5.82426">
        <ele>804.599975586</ele>
        <time>2012-06-16T12:06:43Z</time>
      </trkpt>
      <trkpt lat="45.42844" lon="5.82468">
        <ele>804.599975586</ele>
        <time>2012-06-16T12:07:08Z</time>
      </trkpt>
      <trkpt lat="45.42855" lon="5.82441">
        <ele>811</ele>
        <time>2012-06-16T12:07:41Z</time>
      </trkpt>
      <trkpt lat="45.42916" lon="5.82462">
        <ele>826</ele>
        <time>2012-06-16T12:09:20Z</time>
      </trkpt>
      <trkpt lat="45.42928" lon="5.82403">
        <ele>845.400024414</ele>
        <time>2012-06-16T12:59:23Z</time>
      </trkpt>
      <trkpt lat="45.42949" lon="5.82462">
        <ele>849.400024414</ele>
        <time>2012-06-16T13:00:23Z</time>
      </trkpt>
      <trkpt lat="45.43044" lon="5.82553">
        <ele>839</ele>
        <time>2012-06-16T13:02:01Z</time>
      </trkpt>
      <trkpt lat="45.43093" lon="5.82661">
        <ele>828</ele>
        <time>2012-06-16T13:03:13Z</time>
      </trkpt>
      <trkpt lat="45.43209" lon="5.82807">
        <ele>819.599975586</ele>
        <time>2012-06-16T13:05:28Z</time>
      </trkpt>
      <trkpt lat="45.43251" lon="5.82795">
        <ele>815.799987793</ele>
        <time>2012-06-16T13:05:52Z</time>
      </trkpt>
      <trkpt lat="45.43257" lon="5.82843">
        <ele>815.400024414</ele>
        <time>2012-06-16T13:06:11Z</time>
      </trkpt>
      <trkpt lat="45.43338" lon="5.82905">
        <ele>811.400024414</ele>
        <time>2012-06-16T13:07:16Z</time>
      </trkpt>
      <trkpt lat="45.43384" lon="5.83031">
        <ele>803</ele>
        <time>2012-06-16T13:08:20Z</time>
      </trkpt>
      <trkpt lat="45.43373" lon="5.83172">
        <ele>798.799987793</ele>
        <time>2012-06-16T13:09:33Z</time>
      </trkpt>
      <trkpt lat="45.43262" lon="5.83213">
        <ele>811.400024414</ele>
        <time>2012-06-16T13:11:21Z</time>
      </trkpt>
      <trkpt lat="45.43312" lon="5.83353">
        <ele>842.200012207</ele>
        <time>2012-06-16T13:14:03Z</time>
      </trkpt>
      <trkpt lat="45.43383" lon="5.83447">
        <ele>854.400024414</ele>
        <time>2012-06-16T13:15:27Z</time>
      </trkpt>
      <trkpt lat="45.43371" lon="5.83437">
        <ele>854.400024414</ele>
        <time>2012-06-16T13:15:42Z</time>
      </trkpt>
      <trkpt lat="45.43421" lon="5.83502">
        <ele>857.200012207</ele>
        <time>2012-06-16T13:17:15Z</time>
      </trkpt>
      <trkpt lat="45.43621" lon="5.83531">
        <ele>886.200012207</ele>
        <time>2012-06-16T13:20:49Z</time>
      </trkpt>
      <trkpt lat="45.43757" lon="5.83629">
        <ele>907.400024414</ele>
        <time>2012-06-16T13:22:54Z</time>
      </trkpt>
      <trkpt lat="45.43776" lon="5.83619">
        <ele>910</ele>
        <time>2012-06-16T13:23:11Z</time>
      </trkpt>
      <trkpt lat="45.43782" lon="5.83656">
        <ele>910</ele>
        <time>2012-06-16T13:23:23Z</time>
      </trkpt>
      <trkpt lat="45.43843" lon="5.83663">
        <ele>912</ele>
        <time>2012-06-16T13:23:49Z</time>
      </trkpt>
      <trkpt lat="45.44071" lon="5.83918">
        <ele>952</ele>
        <time>2012-06-16T13:27:20Z</time>
      </trkpt>
      <trkpt lat="45.44071" lon="5.83966">
        <ele>959.400024414</ele>
        <time>2012-06-16T13:27:54Z</time>
      </trkpt>
      <trkpt lat="45.44268" lon="5.83976">
        <ele>967.799987793</ele>
        <time>2012-06-16T13:29:26Z</time>
      </trkpt>
      <trkpt lat="45.44529" lon="5.841">
        <ele>986</ele>
        <time>2012-06-16T13:31:26Z</time>
      </trkpt>
      <trkpt lat="45.44629" lon="5.84097">
        <ele>983.799987793</ele>
        <time>2012-06-16T13:32:02Z</time>
      </trkpt>
      <trkpt lat="45.44796" lon="5.84307">
        <ele>1018.400024414</ele>
        <time>2012-06-16T13:35:16Z</time>
      </trkpt>
      <trkpt lat="45.44866" lon="5.84322">
        <ele>1024.199951172</ele>
        <time>2012-06-16T13:35:48Z</time>
      </trkpt>
      <trkpt lat="45.44988" lon="5.84422">
        <ele>1041.599975586</ele>
        <time>2012-06-16T13:37:23Z</time>
      </trkpt>
      <trkpt lat="45.45022" lon="5.84509">
        <ele>1051.199951172</ele>
        <time>2012-06-16T13:38:20Z</time>
      </trkpt>
      <trkpt lat="45.45076" lon="5.84566">
        <ele>1057.400024414</ele>
        <time>2012-06-16T13:39:06Z</time>
      </trkpt>
      <trkpt lat="45.45068" lon="5.84588">
        <ele>1060</ele>
        <time>2012-06-16T13:39:19Z</time>
      </trkpt>
      <trkpt lat="45.45114" lon="5.84633">
        <ele>1064.400024414</ele>
        <time>2012-06-16T13:39:44Z</time>
      </trkpt>
      <trkpt lat="45.45156" lon="5.84609">
        <ele>1067</ele>
        <time>2012-06-16T13:40:03Z</time>
      </trkpt>
      <trkpt lat="45.45171" lon="5.84678">
        <ele>1073.199951172</ele>
        <time>2012-06-16T13:40:43Z</time>
      </trkpt>
      <trkpt lat="45.45254" lon="5.84822">
        <ele>1087.800048828</ele>
        <time>2012-06-16T13:42:24Z</time>
      </trkpt>
      <trkpt lat="45.45222" lon="5.84847">
        <ele>1090</ele>
        <time>2012-06-16T13:42:44Z</time>
      </trkpt>
      <trkpt lat="45.45299" lon="5.84891">
        <ele>1096.400024414</ele>
        <time>2012-06-16T13:43:15Z</time>
      </trkpt>
      <trkpt lat="45.4536" lon="5.85024">
        <ele>1104.800048828</ele>
        <time>2012-06-16T13:44:17Z</time>
      </trkpt>
      <trkpt lat="45.45346" lon="5.85094">
        <ele>1109</ele>
        <time>2012-06-16T13:44:54Z</time>
      </trkpt>
      <trkpt lat="45.45368" lon="5.85162">
        <ele>1113.400024414</ele>
        <time>2012-06-16T13:45:20Z</time>
      </trkpt>
      <trkpt lat="45.45347" lon="5.85188">
        <ele>1115</ele>
        <time>2012-06-16T13:45:29Z</time>
      </trkpt>
      <trkpt lat="45.45392" lon="5.85414">
        <ele>1128.599975586</ele>
        <time>2012-06-16T13:46:56Z</time>
      </trkpt>
      <trkpt lat="45.45372" lon="5.85574">
        <ele>1141.599975586</ele>
        <time>2012-06-16T13:48:23Z</time>
      </trkpt>
      <trkpt lat="45.45408" lon="5.85723">
        <ele>1147.800048828</ele>
        <time>2012-06-16T13:49:08Z</time>
      </trkpt>
      <trkpt lat="45.45509" lon="5.85853">
        <ele>1156</ele>
        <time>2012-06-16T13:50:26Z</time>
      </trkpt>
      <trkpt lat="45.45403" lon="5.8578">
        <ele>1158.199951172</ele>
        <time>2012-06-16T13:51:48Z</time>
      </trkpt>
      <trkpt lat="45.45465" lon="5.8566">
        <ele>1171.800048828</ele>
        <time>2012-06-16T13:53:28Z</time>
      </trkpt>
      <trkpt lat="45.45493" lon="5.85546">
        <ele>1192.400024414</ele>
        <time>2012-06-16T13:54:50Z</time>
      </trkpt>
      <trkpt lat="45.45529" lon="5.85543">
        <ele>1196.800048828</ele>
        <time>2012-06-16T13:55:12Z</time>
      </trkpt>
      <trkpt lat="45.45547" lon="5.85426">
        <ele>1216.400024414</ele>
        <time>2012-06-16T13:56:42Z</time>
      </trkpt>
      <trkpt lat="45.45535" lon="5.85376">
        <ele>1212</ele>
        <time>2012-06-16T13:57:09Z</time>
      </trkpt>
      <trkpt lat="45.45641" lon="5.85226">
        <ele>1253.599975586</ele>
        <time>2012-06-16T14:00:14Z</time>
      </trkpt>
      <trkpt lat="45.45702" lon="5.85242">
        <ele>1259.800048828</ele>
        <time>2012-06-16T14:01:15Z</time>
      </trkpt>
      <trkpt lat="45.45756" lon="5.85196">
        <ele>1267.599975586</ele>
        <time>2012-06-16T14:02:19Z</time>
      </trkpt>
      <trkpt lat="45.45816" lon="5.85092">
        <ele>1274.400024414</ele>
        <time>2012-06-16T14:03:38Z</time>
      </trkpt>
      <trkpt lat="45.45894" lon="5.85049">
        <ele>1281</ele>
        <time>2012-06-16T14:04:30Z</time>
      </trkpt>
      <trkpt lat="45.45897" lon="5.85004">
        <ele>1283</ele>
        <time>2012-06-16T14:04:56Z</time>
      </trkpt>
      <trkpt lat="45.45991" lon="5.85011">
        <ele>1285.199951172</ele>
        <time>2012-06-16T14:06:01Z</time>
      </trkpt>
      <trkpt lat="45.46111" lon="5.85159">
        <ele>1276.599975586</ele>
        <time>2012-06-16T14:07:41Z</time>
      </trkpt>
      <trkpt lat="45.46145" lon="5.85232">
        <ele>1276.199951172</ele>
        <time>2012-06-16T14:08:12Z</time>
      </trkpt>
      <trkpt lat="45.46309" lon="5.8538">
        <ele>1256.400024414</ele>
        <time>2012-06-16T14:09:42Z</time>
      </trkpt>
      <trkpt lat="45.4631" lon="5.85662">
        <ele>1234.599975586</ele>
        <time>2012-06-16T14:11:10Z</time>
      </trkpt>
      <trkpt lat="45.46238" lon="5.85788">
        <ele>1212.199951172</ele>
        <time>2012-06-16T14:11:56Z</time>
      </trkpt>
      <trkpt lat="45.46244" lon="5.85867">
        <ele>1205.599975586</ele>
        <time>2012-06-16T14:12:15Z</time>
      </trkpt>
      <trkpt lat="45.46277" lon="5.85935">
        <ele>1196</ele>
        <time>2012-06-16T14:12:38Z</time>
      </trkpt>
      <trkpt lat="45.46204" lon="5.8599">
        <ele>1189.800048828</ele>
        <time>2012-06-16T14:14:11Z</time>
      </trkpt>
      <trkpt lat="45.46187" lon="5.86047">
        <ele>1184</ele>
        <time>2012-06-16T14:14:47Z</time>
      </trkpt>
      <trkpt lat="45.46093" lon="5.86166">
        <ele>1131.400024414</ele>
        <time>2012-06-16T14:17:27Z</time>
      </trkpt>
      <trkpt lat="45.45868" lon="5.86175">
        <ele>1159.400024414</ele>
        <time>2012-06-16T14:20:58Z</time>
      </trkpt>
      <trkpt lat="45.45803" lon="5.8614">
        <ele>1170</ele>
        <time>2012-06-16T14:21:54Z</time>
      </trkpt>
      <trkpt lat="45.45664" lon="5.86121">
        <ele>1159</ele>
        <time>2012-06-16T14:23:18Z</time>
      </trkpt>
      <trkpt lat="45.45574" lon="5.86148">
        <ele>1150.199951172</ele>
        <time>2012-06-16T14:24:32Z</time>
      </trkpt>
      <trkpt lat="45.45576" lon="5.86174">
        <ele>1148</ele>
        <time>2012-06-16T14:24:54Z</time>
      </trkpt>
      <trkpt lat="45.45558" lon="5.86158">
        <ele>1144.400024414</ele>
        <time>2012-06-16T14:25:40Z</time>
      </trkpt>
      <trkpt lat="45.45568" lon="5.86173">
        <ele>1136</ele>
        <time>2012-06-16T14:26:07Z</time>
      </trkpt>
      <trkpt lat="45.45551" lon="5.86185">
        <ele>1132.800048828</ele>
        <time>2012-06-16T14:27:25Z</time>
      </trkpt>
      <trkpt lat="45.45525" lon="5.86157">
        <ele>1137.199951172</ele>
        <time>2012-06-16T14:27:59Z</time>
      </trkpt>
      <trkpt lat="45.45546" lon="5.86169">
        <ele>1139.800048828</ele>
        <time>2012-06-16T14:28:54Z</time>
      </trkpt>
      <trkpt lat="45.45502" lon="5.86254">
        <ele>1162.599975586</ele>
        <time>2012-06-16T14:30:52Z</time>
      </trkpt>
      <trkpt lat="45.45563" lon="5.86341">
        <ele>1164.800048828</ele>
        <time>2012-06-16T14:31:36Z</time>
      </trkpt>
      <trkpt lat="45.45534" lon="5.86349">
        <ele>1167</ele>
        <time>2012-06-16T14:31:55Z</time>
      </trkpt>
      <trkpt lat="45.45516" lon="5.86401">
        <ele>1168.800048828</ele>
        <time>2012-06-16T14:32:22Z</time>
      </trkpt>
      <trkpt lat="45.45399" lon="5.8652">
        <ele>1152</ele>
        <time>2012-06-16T14:33:15Z</time>
      </trkpt>
      <trkpt lat="45.45332" lon="5.86533">
        <ele>1149.800048828</ele>
        <time>2012-06-16T14:33:49Z</time>
      </trkpt>
      <trkpt lat="45.45239" lon="5.86492">
        <ele>1158.400024414</ele>
        <time>2012-06-16T14:34:48Z</time>
      </trkpt>
      <trkpt lat="45.45112" lon="5.86509">
        <ele>1167.199951172</ele>
        <time>2012-06-16T14:35:54Z</time>
      </trkpt>
      <trkpt lat="45.4496" lon="5.86409">
        <ele>1187.199951172</ele>
        <time>2012-06-16T14:37:39Z</time>
      </trkpt>
      <trkpt lat="45.44871" lon="5.86306">
        <ele>1196.800048828</ele>
        <time>2012-06-16T14:38:39Z</time>
      </trkpt>
      <trkpt lat="45.44806" lon="5.86268">
        <ele>1202.800048828</ele>
        <time>2012-06-16T14:39:08Z</time>
      </trkpt>
      <trkpt lat="45.44661" lon="5.86255">
        <ele>1206.599975586</ele>
        <time>2012-06-16T14:40:05Z</time>
      </trkpt>
      <trkpt lat="45.44765" lon="5.86136">
        <ele>1202.400024414</ele>
        <time>2012-06-16T14:41:04Z</time>
      </trkpt>
      <trkpt lat="45.44783" lon="5.85908">
        <ele>1200.400024414</ele>
        <time>2012-06-16T14:42:11Z</time>
      </trkpt>
      <trkpt lat="45.4468" lon="5.85947">
        <ele>1176.400024414</ele>
        <time>2012-06-16T14:43:29Z</time>
      </trkpt>
      <trkpt lat="45.44598" lon="5.86019">
        <ele>1153</ele>
        <time>2012-06-16T14:44:34Z</time>
      </trkpt>
      <trkpt lat="45.44535" lon="5.86006">
        <ele>1140.599975586</ele>
        <time>2012-06-16T14:45:06Z</time>
      </trkpt>
      <trkpt lat="45.44438" lon="5.86103">
        <ele>1132.199951172</ele>
        <time>2012-06-16T14:46:03Z</time>
      </trkpt>
      <trkpt lat="45.44388" lon="5.86253">
        <ele>1126.599975586</ele>
        <time>2012-06-16T14:46:51Z</time>
      </trkpt>
      <trkpt lat="45.44247" lon="5.86519">
        <ele>1107.199951172</ele>
        <time>2012-06-16T14:48:13Z</time>
      </trkpt>
      <trkpt lat="45.44227" lon="5.86595">
        <ele>1093.800048828</ele>
        <time>2012-06-16T14:48:40Z</time>
      </trkpt>
      <trkpt lat="45.44069" lon="5.86639">
        <ele>1068.400024414</ele>
        <time>2012-06-16T14:49:45Z</time>
      </trkpt>
      <trkpt lat="45.44025" lon="5.86686">
        <ele>1057.400024414</ele>
        <time>2012-06-16T14:50:06Z</time>
      </trkpt>
      <trkpt lat="45.44007" lon="5.86679">
        <ele>1051.199951172</ele>
        <time>2012-06-16T14:50:20Z</time>
      </trkpt>
      <trkpt lat="45.44025" lon="5.86612">
        <ele>1032.400024414</ele>
        <time>2012-06-16T14:51:38Z</time>
      </trkpt>
      <trkpt lat="45.43932" lon="5.86546">
        <ele>1006.799987793</ele>
        <time>2012-06-16T14:52:17Z</time>
      </trkpt>
      <trkpt lat="45.43875" lon="5.86571">
        <ele>1003.400024414</ele>
        <time>2012-06-16T14:52:39Z</time>
      </trkpt>
      <trkpt lat="45.43815" lon="5.86553">
        <ele>985</ele>
        <time>2012-06-16T14:53:16Z</time>
      </trkpt>
      <trkpt lat="45.43872" lon="5.86484">
        <ele>968</ele>
        <time>2012-06-16T14:54:41Z</time>
      </trkpt>
      <trkpt lat="45.4381" lon="5.86436">
        <ele>974.400024414</ele>
        <time>2012-06-16T14:56:21Z</time>
      </trkpt>
      <trkpt lat="45.43749" lon="5.86436">
        <ele>974.400024414</ele>
        <time>2012-06-16T14:57:04Z</time>
      </trkpt>
      <trkpt lat="45.43672" lon="5.86399">
        <ele>978.799987793</ele>
        <time>2012-06-16T14:57:57Z</time>
      </trkpt>
      <trkpt lat="45.43331" lon="5.86533">
        <ele>907.799987793</ele>
        <time>2012-06-16T15:00:49Z</time>
      </trkpt>
      <trkpt lat="45.43112" lon="5.86507">
        <ele>871.599975586</ele>
        <time>2012-06-16T15:02:13Z</time>
      </trkpt>
      <trkpt lat="45.43042" lon="5.86425">
        <ele>836.400024414</ele>
        <time>2012-06-16T15:03:06Z</time>
      </trkpt>
      <trkpt lat="45.42918" lon="5.86363">
        <ele>804.200012207</ele>
        <time>2012-06-16T15:03:56Z</time>
      </trkpt>
      <trkpt lat="45.42774" lon="5.8636">
        <ele>766.400024414</ele>
        <time>2012-06-16T15:05:01Z</time>
      </trkpt>
      <trkpt lat="45.42779" lon="5.86339">
        <ele>763</ele>
        <time>2012-06-16T15:05:09Z</time>
      </trkpt>
      <trkpt lat="45.42753" lon="5.86343">
        <ele>757.200012207</ele>
        <time>2012-06-16T15:05:21Z</time>
      </trkpt>
      <trkpt lat="45.42717" lon="5.86411">
        <ele>742</ele>
        <time>2012-06-16T15:05:52Z</time>
      </trkpt>
      <trkpt lat="45.42705" lon="5.86345">
        <ele>734</ele>
        <time>2012-06-16T15:06:21Z</time>
      </trkpt>
      <trkpt lat="45.42722" lon="5.8626">
        <ele>723.400024414</ele>
        <time>2012-06-16T15:06:57Z</time>
      </trkpt>
      <trkpt lat="45.42695" lon="5.86238">
        <ele>723</ele>
        <time>2012-06-16T15:07:13Z</time>
      </trkpt>
      <trkpt lat="45.42593" lon="5.86248">
        <ele>712.599975586</ele>
        <time>2012-06-16T15:08:26Z</time>
      </trkpt>
      <trkpt lat="45.42555" lon="5.86299">
        <ele>712.599975586</ele>
        <time>2012-06-16T15:11:09Z</time>
      </trkpt>
      <trkpt lat="45.42477" lon="5.86163">
        <ele>702.599975586</ele>
        <time>2012-06-16T15:16:24Z</time>
      </trkpt>
      <trkpt lat="45.42372" lon="5.86077">
        <ele>694</ele>
        <time>2012-06-16T15:17:21Z</time>
      </trkpt>
      <trkpt lat="45.42318" lon="5.86065">
        <ele>694</ele>
        <time>2012-06-16T15:17:41Z</time>
      </trkpt>
      <trkpt lat="45.42233" lon="5.85997">
        <ele>692.200012207</ele>
        <time>2012-06-16T15:18:29Z</time>
      </trkpt>
      <trkpt lat="45.42199" lon="5.8594">
        <ele>687.799987793</ele>
        <time>2012-06-16T15:18:49Z</time>
      </trkpt>
      <trkpt lat="45.42211" lon="5.8602">
        <ele>681</ele>
        <time>2012-06-16T15:19:14Z</time>
      </trkpt>
      <trkpt lat="45.42169" lon="5.8597">
        <ele>673.799987793</ele>
        <time>2012-06-16T15:19:37Z</time>
      </trkpt>
      <trkpt lat="45.4215" lon="5.85814">
        <ele>663</ele>
        <time>2012-06-16T15:20:39Z</time>
      </trkpt>
      <trkpt lat="45.42079" lon="5.85756">
        <ele>660.599975586</ele>
        <time>2012-06-16T15:21:23Z</time>
      </trkpt>
      <trkpt lat="45.41964" lon="5.85735">
        <ele>658.799987793</ele>
        <time>2012-06-16T15:22:00Z</time>
      </trkpt>
      <trkpt lat="45.41875" lon="5.85608">
        <ele>656.799987793</ele>
        <time>2012-06-16T15:22:46Z</time>
      </trkpt>
      <trkpt lat="45.417" lon="5.85194">
        <ele>650.599975586</ele>
        <time>2012-06-16T15:26:00Z</time>
      </trkpt>
      <trkpt lat="45.41684" lon="5.85195">
        <ele>650.599975586</ele>
        <time>2012-06-16T15:26:14Z</time>
      </trkpt>
      <trkpt lat="45.41657" lon="5.85272">
        <ele>650.599975586</ele>
        <time>2012-06-16T15:26:56Z</time>
      </trkpt>
      <trkpt lat="45.41601" lon="5.85345">
        <ele>654.799987793</ele>
        <time>2012-06-16T15:27:56Z</time>
      </trkpt>
      <trkpt lat="45.4157" lon="5.85317">
        <ele>656.799987793</ele>
        <time>2012-06-16T15:28:26Z</time>
      </trkpt>
      <trkpt lat="45.41507" lon="5.85392">
        <ele>661.400024414</ele>
        <time>2012-06-16T15:29:18Z</time>
      </trkpt>
      <trkpt lat="45.41504" lon="5.85455">
        <ele>657</ele>
        <time>2012-06-16T15:30:43Z</time>
      </trkpt>
    </trkseg>
  </trk>
</gpx>